sensor_id;sensor_type;location;lat;lon;timestamp;pressure;altitude;pressure_sealevel;temperature;humidity
50682;BME280;36779;52.168;20.878;2023-04-26T00:01:49;99694.52;;;6.76;67.23
50682;BME280;36779;52.168;20.878;2023-04-26T00:04:43;99700.88;;;6.76;67.36
50682;BME280;36779;52.168;20.878;2023-04-26T00:07:38;99699.11;;;6.76;67.29
50682;BME280;36779;52.168;20.878;2023-04-26T00:10:31;99702.63;;;6.77;67.31
50682;BME280;36779;52.168;20.878;2023-04-26T00:13:25;99703.55;;;6.76;67.27
50682;BME280;36779;52.168;20.878;2023-04-26T00:16:19;99706.40;;;6.76;67.39
50682;BME280;36779;52.168;20.878;2023-04-26T00:19:10;99712.22;;;6.78;67.38
50682;BME280;36779;52.168;20.878;2023-04-26T00:22:03;99714.86;;;6.74;67.21
50682;BME280;36779;52.168;20.878;2023-04-26T00:24:57;99718.28;;;6.67;67.29
50682;BME280;36779;52.168;20.878;2023-04-26T00:27:41;99718.36;;;6.61;67.29
50682;BME280;36779;52.168;20.878;2023-04-26T00:30:35;99721.36;;;6.53;67.23
50682;BME280;36779;52.168;20.878;2023-04-26T00:33:31;99729.64;;;6.50;67.27
50682;BME280;36779;52.168;20.878;2023-04-26T00:36:16;99733.78;;;6.48;67.36
50682;BME280;36779;52.168;20.878;2023-04-26T00:39:09;99735.73;;;6.46;67.34
50682;BME280;36779;52.168;20.878;2023-04-26T00:42:03;99737.29;;;6.44;67.46
50682;BME280;36779;52.168;20.878;2023-04-26T00:44:57;99736.14;;;6.42;67.35
50682;BME280;36779;52.168;20.878;2023-04-26T00:47:51;99741.30;;;6.38;67.46
50682;BME280;36779;52.168;20.878;2023-04-26T00:50:45;99739.70;;;6.34;67.37
50682;BME280;36779;52.168;20.878;2023-04-26T00:53:40;99741.20;;;6.29;67.49
50682;BME280;36779;52.168;20.878;2023-04-26T00:56:34;99746.73;;;6.27;67.33
50682;BME280;36779;52.168;20.878;2023-04-26T00:59:31;99749.64;;;6.26;67.44
50682;BME280;36779;52.168;20.878;2023-04-26T01:02:27;99749.75;;;6.27;67.58
50682;BME280;36779;52.168;20.878;2023-04-26T01:05:24;99754.61;;;6.26;67.44
50682;BME280;36779;52.168;20.878;2023-04-26T01:08:19;99757.75;;;6.23;67.52
50682;BME280;36779;52.168;20.878;2023-04-26T01:11:12;99757.08;;;6.21;67.40
50682;BME280;36779;52.168;20.878;2023-04-26T01:14:06;99758.14;;;6.19;67.51
50682;BME280;36779;52.168;20.878;2023-04-26T01:17:00;99757.58;;;6.15;67.50
50682;BME280;36779;52.168;20.878;2023-04-26T01:19:55;99759.17;;;6.13;67.58
50682;BME280;36779;52.168;20.878;2023-04-26T01:22:48;99759.61;;;6.11;67.54
50682;BME280;36779;52.168;20.878;2023-04-26T01:25:41;99763.27;;;6.09;67.45
50682;BME280;36779;52.168;20.878;2023-04-26T01:28:35;99760.64;;;6.07;67.53
50682;BME280;36779;52.168;20.878;2023-04-26T01:31:27;99757.04;;;6.05;67.49
50682;BME280;36779;52.168;20.878;2023-04-26T01:34:21;99760.33;;;6.02;67.58
50682;BME280;36779;52.168;20.878;2023-04-26T01:37:14;99760.94;;;5.97;67.57
50682;BME280;36779;52.168;20.878;2023-04-26T01:40:09;99765.80;;;5.92;67.61
50682;BME280;36779;52.168;20.878;2023-04-26T01:43:02;99766.52;;;5.90;67.66
50682;BME280;36779;52.168;20.878;2023-04-26T01:45:49;99770.95;;;5.89;67.67
50682;BME280;36779;52.168;20.878;2023-04-26T01:48:54;99766.92;;;5.89;67.62
50682;BME280;36779;52.168;20.878;2023-04-26T01:51:50;99763.78;;;5.87;67.76
50682;BME280;36779;52.168;20.878;2023-04-26T01:54:44;99765.69;;;5.87;67.71
50682;BME280;36779;52.168;20.878;2023-04-26T01:57:36;99763.64;;;5.90;67.74
50682;BME280;36779;52.168;20.878;2023-04-26T02:00:22;99763.80;;;5.93;67.77
50682;BME280;36779;52.168;20.878;2023-04-26T02:03:15;99763.73;;;5.96;67.79
50682;BME280;36779;52.168;20.878;2023-04-26T02:06:08;99766.17;;;6.01;67.86
50682;BME280;36779;52.168;20.878;2023-04-26T02:09:02;99767.02;;;6.05;68.00
50682;BME280;36779;52.168;20.878;2023-04-26T02:12:05;99768.67;;;6.10;67.93
50682;BME280;36779;52.168;20.878;2023-04-26T02:14:59;99776.21;;;6.10;67.83
50682;BME280;36779;52.168;20.878;2023-04-26T02:17:52;99774.54;;;6.13;67.84
50682;BME280;36779;52.168;20.878;2023-04-26T02:20:46;99775.89;;;6.12;67.77
50682;BME280;36779;52.168;20.878;2023-04-26T02:23:39;99776.51;;;6.08;67.78
50682;BME280;36779;52.168;20.878;2023-04-26T02:26:32;99778.33;;;6.05;67.77
50682;BME280;36779;52.168;20.878;2023-04-26T02:29:26;99775.86;;;6.03;67.93
50682;BME280;36779;52.168;20.878;2023-04-26T02:32:34;99774.47;;;6.03;67.89
50682;BME280;36779;52.168;20.878;2023-04-26T02:35:27;99772.84;;;6.05;67.96
50682;BME280;36779;52.168;20.878;2023-04-26T02:38:20;99779.05;;;6.05;67.83
50682;BME280;36779;52.168;20.878;2023-04-26T02:41:07;99773.05;;;6.07;67.89
50682;BME280;36779;52.168;20.878;2023-04-26T02:43:59;99777.67;;;6.10;67.93
50682;BME280;36779;52.168;20.878;2023-04-26T02:46:53;99775.83;;;6.12;67.90
50682;BME280;36779;52.168;20.878;2023-04-26T02:49:48;99772.66;;;6.12;67.89
50682;BME280;36779;52.168;20.878;2023-04-26T02:52:44;99772.69;;;6.07;67.79
50682;BME280;36779;52.168;20.878;2023-04-26T02:55:37;99776.63;;;6.01;67.66
50682;BME280;36779;52.168;20.878;2023-04-26T02:58:30;99784.15;;;5.94;67.77
50682;BME280;36779;52.168;20.878;2023-04-26T03:01:26;99787.59;;;5.85;67.74
50682;BME280;36779;52.168;20.878;2023-04-26T03:04:18;99786.71;;;5.76;67.70
50682;BME280;36779;52.168;20.878;2023-04-26T03:07:11;99785.04;;;5.70;67.67
50682;BME280;36779;52.168;20.878;2023-04-26T03:10:06;99784.51;;;5.62;67.75
50682;BME280;36779;52.168;20.878;2023-04-26T03:12:59;99785.23;;;5.56;67.67
50682;BME280;36779;52.168;20.878;2023-04-26T03:15:52;99783.46;;;5.51;67.56
50682;BME280;36779;52.168;20.878;2023-04-26T03:18:35;99785.13;;;5.42;67.63
50682;BME280;36779;52.168;20.878;2023-04-26T03:21:28;99784.01;;;5.35;67.62
50682;BME280;36779;52.168;20.878;2023-04-26T03:24:26;99782.31;;;5.33;67.61
50682;BME280;36779;52.168;20.878;2023-04-26T03:27:23;99785.91;;;5.32;67.85
50682;BME280;36779;52.168;20.878;2023-04-26T03:30:24;99788.23;;;5.26;67.63
50682;BME280;36779;52.168;20.878;2023-04-26T03:33:16;99788.73;;;5.17;67.63
50682;BME280;36779;52.168;20.878;2023-04-26T03:36:14;99793.41;;;5.12;67.72
50682;BME280;36779;52.168;20.878;2023-04-26T03:38:51;99799.71;;;5.09;67.74
50682;BME280;36779;52.168;20.878;2023-04-26T03:41:45;99799.62;;;5.04;67.85
50682;BME280;36779;52.168;20.878;2023-04-26T03:44:38;99797.79;;;4.99;67.76
50682;BME280;36779;52.168;20.878;2023-04-26T03:47:30;99800.27;;;4.95;67.77
50682;BME280;36779;52.168;20.878;2023-04-26T03:50:27;99802.41;;;4.91;67.81
50682;BME280;36779;52.168;20.878;2023-04-26T03:53:20;99804.83;;;4.85;67.82
50682;BME280;36779;52.168;20.878;2023-04-26T03:56:13;99803.85;;;4.83;67.65
50682;BME280;36779;52.168;20.878;2023-04-26T03:59:07;99807.36;;;4.81;67.79
50682;BME280;36779;52.168;20.878;2023-04-26T04:02:00;99810.64;;;4.85;67.96
50682;BME280;36779;52.168;20.878;2023-04-26T04:04:53;99814.45;;;4.92;68.01
50682;BME280;36779;52.168;20.878;2023-04-26T04:07:47;99816.50;;;4.98;68.09
50682;BME280;36779;52.168;20.878;2023-04-26T04:10:40;99815.44;;;5.01;67.90
50682;BME280;36779;52.168;20.878;2023-04-26T04:13:35;99815.94;;;5.03;67.99
50682;BME280;36779;52.168;20.878;2023-04-26T04:16:27;99813.20;;;5.08;67.96
50682;BME280;36779;52.168;20.878;2023-04-26T04:19:20;99813.63;;;5.35;68.75
50682;BME280;36779;52.168;20.878;2023-04-26T04:22:13;99821.21;;;5.99;69.25
50682;BME280;36779;52.168;20.878;2023-04-26T04:25:07;99819.92;;;6.64;69.58
50682;BME280;36779;52.168;20.878;2023-04-26T04:28:04;99819.59;;;7.31;69.73
50682;BME280;36779;52.168;20.878;2023-04-26T04:30:59;99822.02;;;7.97;69.74
50682;BME280;36779;52.168;20.878;2023-04-26T04:33:52;99819.86;;;8.63;69.66
50682;BME280;36779;52.168;20.878;2023-04-26T04:36:46;99818.52;;;9.14;69.22
50682;BME280;36779;52.168;20.878;2023-04-26T04:39:39;99824.67;;;9.48;68.82
50682;BME280;36779;52.168;20.878;2023-04-26T04:42:33;99824.94;;;9.63;68.44
50682;BME280;36779;52.168;20.878;2023-04-26T04:45:21;99829.30;;;9.86;68.25
50682;BME280;36779;52.168;20.878;2023-04-26T04:48:16;99830.13;;;10.07;67.67
50682;BME280;36779;52.168;20.878;2023-04-26T04:51:09;99833.00;;;10.31;67.85
50682;BME280;36779;52.168;20.878;2023-04-26T04:54:10;99838.42;;;10.79;67.90
50682;BME280;36779;52.168;20.878;2023-04-26T04:57:06;99838.26;;;11.15;67.99
50682;BME280;36779;52.168;20.878;2023-04-26T04:59:59;99836.45;;;11.28;67.11
50682;BME280;36779;52.168;20.878;2023-04-26T05:03:00;99841.27;;;11.00;65.68
50682;BME280;36779;52.168;20.878;2023-04-26T05:05:53;99847.84;;;10.60;65.38
50682;BME280;36779;52.168;20.878;2023-04-26T05:08:48;99851.86;;;10.34;65.19
50682;BME280;36779;52.168;20.878;2023-04-26T05:11:41;99856.80;;;9.95;64.81
50682;BME280;36779;52.168;20.878;2023-04-26T05:14:26;99858.67;;;9.73;65.00
50682;BME280;36779;52.168;20.878;2023-04-26T05:17:19;99862.30;;;9.62;65.17
50682;BME280;36779;52.168;20.878;2023-04-26T05:20:12;99862.76;;;9.39;64.97
50682;BME280;36779;52.168;20.878;2023-04-26T05:23:05;99859.84;;;9.72;66.44
50682;BME280;36779;52.168;20.878;2023-04-26T05:26:02;99867.98;;;10.56;67.28
50682;BME280;36779;52.168;20.878;2023-04-26T05:29:02;99868.11;;;11.49;67.81
50682;BME280;36779;52.168;20.878;2023-04-26T05:31:59;99872.38;;;12.18;67.23
50682;BME280;36779;52.168;20.878;2023-04-26T05:34:52;99875.10;;;12.50;66.24
50682;BME280;36779;52.168;20.878;2023-04-26T05:37:45;99877.20;;;12.50;65.32
50682;BME280;36779;52.168;20.878;2023-04-26T05:40:38;99874.73;;;12.59;65.21
50682;BME280;36779;52.168;20.878;2023-04-26T05:43:31;99876.30;;;12.22;63.84
50682;BME280;36779;52.168;20.878;2023-04-26T05:46:25;99873.21;;;11.80;63.82
50682;BME280;36779;52.168;20.878;2023-04-26T05:49:18;99875.87;;;11.48;63.62
50682;BME280;36779;52.168;20.878;2023-04-26T05:52:06;99878.77;;;11.17;63.61
50682;BME280;36779;52.168;20.878;2023-04-26T05:54:59;99879.34;;;11.08;63.99
50682;BME280;36779;52.168;20.878;2023-04-26T05:57:53;99878.14;;;10.95;63.91
50682;BME280;36779;52.168;20.878;2023-04-26T06:00:47;99882.56;;;10.75;63.95
50682;BME280;36779;52.168;20.878;2023-04-26T06:03:39;99884.77;;;10.68;63.77
50682;BME280;36779;52.168;20.878;2023-04-26T06:06:33;99881.39;;;10.51;63.67
50682;BME280;36779;52.168;20.878;2023-04-26T06:09:25;99884.71;;;10.33;63.58
50682;BME280;36779;52.168;20.878;2023-04-26T06:12:18;99887.41;;;10.08;63.29
50682;BME280;36779;52.168;20.878;2023-04-26T06:15:12;99889.27;;;9.76;63.33
50682;BME280;36779;52.168;20.878;2023-04-26T06:18:05;99884.70;;;9.56;63.45
50682;BME280;36779;52.168;20.878;2023-04-26T06:20:59;99880.80;;;9.33;63.35
50682;BME280;36779;52.168;20.878;2023-04-26T06:23:52;99890.30;;;9.10;63.55
50682;BME280;36779;52.168;20.878;2023-04-26T06:26:44;99882.98;;;8.98;63.75
50682;BME280;36779;52.168;20.878;2023-04-26T06:29:37;99886.45;;;8.87;63.77
50682;BME280;36779;52.168;20.878;2023-04-26T06:32:33;99889.58;;;8.87;64.02
50682;BME280;36779;52.168;20.878;2023-04-26T06:35:28;99890.91;;;8.92;64.11
50682;BME280;36779;52.168;20.878;2023-04-26T06:38:20;99895.06;;;9.16;64.44
50682;BME280;36779;52.168;20.878;2023-04-26T06:41:13;99892.04;;;9.62;64.72
50682;BME280;36779;52.168;20.878;2023-04-26T06:44:06;99893.22;;;9.93;64.51
50682;BME280;36779;52.168;20.878;2023-04-26T06:46:59;99896.38;;;10.24;64.47
50682;BME280;36779;52.168;20.878;2023-04-26T06:49:52;99904.88;;;10.65;64.48
50682;BME280;36779;52.168;20.878;2023-04-26T06:52:44;99897.51;;;10.97;64.00
50682;BME280;36779;52.168;20.878;2023-04-26T06:55:37;99901.08;;;10.83;62.88
50682;BME280;36779;52.168;20.878;2023-04-26T06:58:30;99901.73;;;10.69;63.05
50682;BME280;36779;52.168;20.878;2023-04-26T07:01:24;99901.04;;;10.61;62.74
50682;BME280;36779;52.168;20.878;2023-04-26T07:04:17;99902.26;;;10.49;62.73
50682;BME280;36779;52.168;20.878;2023-04-26T07:07:11;99902.10;;;10.37;62.79
50682;BME280;36779;52.168;20.878;2023-04-26T07:10:05;99902.64;;;10.47;63.14
50682;BME280;36779;52.168;20.878;2023-04-26T07:13:00;99901.50;;;10.54;63.08
50682;BME280;36779;52.168;20.878;2023-04-26T07:15:53;99906.96;;;10.61;63.02
50682;BME280;36779;52.168;20.878;2023-04-26T07:18:47;99908.02;;;10.64;62.92
50682;BME280;36779;52.168;20.878;2023-04-26T07:21:39;99907.48;;;10.32;61.97
50682;BME280;36779;52.168;20.878;2023-04-26T07:24:32;99909.46;;;9.93;61.94
50682;BME280;36779;52.168;20.878;2023-04-26T07:27:25;99911.25;;;9.73;62.17
50682;BME280;36779;52.168;20.878;2023-04-26T07:30:18;99912.30;;;9.57;61.96
50682;BME280;36779;52.168;20.878;2023-04-26T07:33:11;99913.43;;;9.59;62.74
50682;BME280;36779;52.168;20.878;2023-04-26T07:36:05;99914.52;;;9.72;62.63
50682;BME280;36779;52.168;20.878;2023-04-26T07:38:57;99918.73;;;9.77;62.53
50682;BME280;36779;52.168;20.878;2023-04-26T07:41:51;99919.27;;;9.79;62.67
50682;BME280;36779;52.168;20.878;2023-04-26T07:44:44;99924.94;;;9.92;62.90
50682;BME280;36779;52.168;20.878;2023-04-26T07:47:39;99924.02;;;10.03;62.65
50682;BME280;36779;52.168;20.878;2023-04-26T07:50:22;99925.98;;;10.12;62.60
50682;BME280;36779;52.168;20.878;2023-04-26T07:53:15;99925.84;;;10.20;62.79
50682;BME280;36779;52.168;20.878;2023-04-26T07:56:10;99926.71;;;10.38;62.88
50682;BME280;36779;52.168;20.878;2023-04-26T07:59:02;99932.16;;;10.53;62.90
50682;BME280;36779;52.168;20.878;2023-04-26T08:01:56;99934.98;;;10.64;62.56
50682;BME280;36779;52.168;20.878;2023-04-26T08:04:50;99930.73;;;10.69;62.42
50682;BME280;36779;52.168;20.878;2023-04-26T08:07:44;99929.58;;;10.49;61.71
50682;BME280;36779;52.168;20.878;2023-04-26T08:10:36;99928.70;;;10.24;61.62
50682;BME280;36779;52.168;20.878;2023-04-26T08:13:34;99935.09;;;10.09;61.81
50682;BME280;36779;52.168;20.878;2023-04-26T08:16:26;99939.28;;;9.92;61.74
50682;BME280;36779;52.168;20.878;2023-04-26T08:19:19;99942.06;;;9.75;61.67
50682;BME280;36779;52.168;20.878;2023-04-26T08:22:12;99945.52;;;9.61;61.69
50682;BME280;36779;52.168;20.878;2023-04-26T08:25:08;99945.52;;;9.43;61.70
50682;BME280;36779;52.168;20.878;2023-04-26T08:28:03;99945.39;;;9.19;61.51
50682;BME280;36779;52.168;20.878;2023-04-26T08:30:56;99947.36;;;8.91;61.31
50682;BME280;36779;52.168;20.878;2023-04-26T08:33:50;99946.95;;;8.74;61.52
50682;BME280;36779;52.168;20.878;2023-04-26T08:36:43;99946.00;;;8.68;61.97
50682;BME280;36779;52.168;20.878;2023-04-26T08:39:35;99946.83;;;9.06;62.90
50682;BME280;36779;52.168;20.878;2023-04-26T08:42:32;99945.06;;;9.50;62.79
50682;BME280;36779;52.168;20.878;2023-04-26T08:45:25;99947.55;;;9.52;61.96
50682;BME280;36779;52.168;20.878;2023-04-26T08:48:19;99946.58;;;9.38;61.75
50682;BME280;36779;52.168;20.878;2023-04-26T08:51:13;99948.50;;;9.27;61.61
50682;BME280;36779;52.168;20.878;2023-04-26T08:54:07;99947.55;;;9.21;61.68
50682;BME280;36779;52.168;20.878;2023-04-26T08:57:01;99944.09;;;9.21;61.86
50682;BME280;36779;52.168;20.878;2023-04-26T08:59:56;99949.20;;;9.27;61.80
50682;BME280;36779;52.168;20.878;2023-04-26T09:02:50;99949.92;;;9.33;61.78
50682;BME280;36779;52.168;20.878;2023-04-26T09:05:44;99950.85;;;9.51;61.98
50682;BME280;36779;52.168;20.878;2023-04-26T09:08:40;99959.02;;;9.64;61.86
50682;BME280;36779;52.168;20.878;2023-04-26T09:11:52;99966.71;;;9.63;61.59
50682;BME280;36779;52.168;20.878;2023-04-26T09:14:40;99970.81;;;9.63;61.76
50682;BME280;36779;52.168;20.878;2023-04-26T09:17:35;99970.39;;;10.00;62.40
50682;BME280;36779;52.168;20.878;2023-04-26T09:20:29;99971.33;;;10.22;61.81
50682;BME280;36779;52.168;20.878;2023-04-26T09:23:22;99974.46;;;10.12;61.04
50682;BME280;36779;52.168;20.878;2023-04-26T09:26:19;99979.22;;;9.92;60.86
50682;BME280;36779;52.168;20.878;2023-04-26T09:29:14;99980.42;;;9.74;60.72
50682;BME280;36779;52.168;20.878;2023-04-26T09:32:07;99984.23;;;9.59;60.72
50682;BME280;36779;52.168;20.878;2023-04-26T09:35:01;99983.84;;;9.48;60.74
50682;BME280;36779;52.168;20.878;2023-04-26T09:37:56;99980.32;;;9.46;61.02
50682;BME280;36779;52.168;20.878;2023-04-26T09:41:01;99971.92;;;9.82;61.86
50682;BME280;36779;52.168;20.878;2023-04-26T09:43:54;99971.45;;;10.43;62.39
50682;BME280;36779;52.168;20.878;2023-04-26T09:46:59;99976.42;;;11.06;62.52
50682;BME280;36779;52.168;20.878;2023-04-26T09:49:53;99976.64;;;11.69;62.31
50682;BME280;36779;52.168;20.878;2023-04-26T09:52:47;99974.52;;;12.04;61.83
50682;BME280;36779;52.168;20.878;2023-04-26T09:55:39;99977.20;;;12.40;61.74
50682;BME280;36779;52.168;20.878;2023-04-26T09:58:35;99979.29;;;12.73;61.59
50682;BME280;36779;52.168;20.878;2023-04-26T10:01:29;99978.76;;;12.92;60.90
50682;BME280;36779;52.168;20.878;2023-04-26T10:04:22;99976.50;;;12.69;59.71
50682;BME280;36779;52.168;20.878;2023-04-26T10:07:16;99981.71;;;12.30;59.32
50682;BME280;36779;52.168;20.878;2023-04-26T10:10:03;99985.92;;;11.92;59.15
50682;BME280;36779;52.168;20.878;2023-04-26T10:12:57;99989.14;;;11.67;59.60
50682;BME280;36779;52.168;20.878;2023-04-26T10:15:50;99986.20;;;11.92;60.00
50682;BME280;36779;52.168;20.878;2023-04-26T10:18:43;99981.86;;;12.32;60.33
50682;BME280;36779;52.168;20.878;2023-04-26T10:21:38;99977.77;;;12.56;59.70
50682;BME280;36779;52.168;20.878;2023-04-26T10:24:34;99978.83;;;12.53;59.38
50682;BME280;36779;52.168;20.878;2023-04-26T10:27:49;99975.63;;;12.72;59.44
50682;BME280;36779;52.168;20.878;2023-04-26T10:30:56;99977.30;;;12.98;59.53
50682;BME280;36779;52.168;20.878;2023-04-26T10:34:19;99973.59;;;13.21;59.34
50682;BME280;36779;52.168;20.878;2023-04-26T10:37:17;99976.93;;;13.43;58.86
50682;BME280;36779;52.168;20.878;2023-04-26T10:40:26;99984.38;;;13.30;58.19
50682;BME280;36779;52.168;20.878;2023-04-26T10:43:29;99995.70;;;12.83;57.13
50682;BME280;36779;52.168;20.878;2023-04-26T10:46:37;99995.17;;;12.24;56.82
50682;BME280;36779;52.168;20.878;2023-04-26T10:49:50;100006.95;;;11.68;56.81
50682;BME280;36779;52.168;20.878;2023-04-26T10:53:05;100008.41;;;11.25;56.86
50682;BME280;36779;52.168;20.878;2023-04-26T10:56:01;100009.15;;;10.87;56.87
50682;BME280;36779;52.168;20.878;2023-04-26T10:59:07;100010.73;;;10.67;57.12
50682;BME280;36779;52.168;20.878;2023-04-26T11:02:03;100008.63;;;10.87;57.91
50682;BME280;36779;52.168;20.878;2023-04-26T11:04:56;100010.28;;;11.04;57.65
50682;BME280;36779;52.168;20.878;2023-04-26T11:08:04;100014.46;;;10.96;57.30
50682;BME280;36779;52.168;20.878;2023-04-26T11:11:06;100021.87;;;10.81;57.14
50682;BME280;36779;52.168;20.878;2023-04-26T11:14:02;100025.68;;;10.72;57.18
50682;BME280;36779;52.168;20.878;2023-04-26T11:16:46;100029.35;;;10.54;56.91
50682;BME280;36779;52.168;20.878;2023-04-26T11:19:39;100027.53;;;10.34;56.75
50682;BME280;36779;52.168;20.878;2023-04-26T11:22:32;100030.34;;;10.13;56.64
50682;BME280;36779;52.168;20.878;2023-04-26T11:25:26;100031.39;;;10.11;57.13
50682;BME280;36779;52.168;20.878;2023-04-26T11:28:20;100029.58;;;10.25;57.36
50682;BME280;36779;52.168;20.878;2023-04-26T11:31:13;100029.02;;;10.39;57.37
50682;BME280;36779;52.168;20.878;2023-04-26T11:34:07;100033.04;;;10.50;57.29
50682;BME280;36779;52.168;20.878;2023-04-26T11:36:49;100036.45;;;10.53;56.97
50682;BME280;36779;52.168;20.878;2023-04-26T11:39:45;100042.02;;;10.43;56.74
50682;BME280;36779;52.168;20.878;2023-04-26T11:42:38;100038.77;;;10.24;56.52
50682;BME280;36779;52.168;20.878;2023-04-26T11:45:33;100041.02;;;10.00;56.20
50682;BME280;36779;52.168;20.878;2023-04-26T11:48:28;100045.11;;;9.75;56.23
50682;BME280;36779;52.168;20.878;2023-04-26T11:51:21;100052.77;;;9.57;56.17
50682;BME280;36779;52.168;20.878;2023-04-26T11:54:27;100051.52;;;9.42;56.39
50682;BME280;36779;52.168;20.878;2023-04-26T11:57:22;100051.05;;;9.34;56.33
50682;BME280;36779;52.168;20.878;2023-04-26T12:00:17;100054.88;;;9.33;56.54
50682;BME280;36779;52.168;20.878;2023-04-26T12:03:11;100055.64;;;9.33;56.43
50682;BME280;36779;52.168;20.878;2023-04-26T12:06:07;100057.95;;;9.30;56.40
50682;BME280;36779;52.168;20.878;2023-04-26T12:09:02;100058.66;;;9.33;56.52
50682;BME280;36779;52.168;20.878;2023-04-26T12:12:00;100059.64;;;9.38;56.74
50682;BME280;36779;52.168;20.878;2023-04-26T12:14:54;100060.42;;;9.56;56.82
50682;BME280;36779;52.168;20.878;2023-04-26T12:17:54;100060.58;;;9.73;56.84
50682;BME280;36779;52.168;20.878;2023-04-26T12:20:48;100062.68;;;9.77;56.51
50682;BME280;36779;52.168;20.878;2023-04-26T12:23:39;100061.17;;;9.73;56.52
50682;BME280;36779;52.168;20.878;2023-04-26T12:26:22;100067.80;;;9.69;56.33
50682;BME280;36779;52.168;20.878;2023-04-26T12:29:31;100072.46;;;9.60;56.24
50682;BME280;36779;52.168;20.878;2023-04-26T12:32:25;100068.95;;;9.63;56.53
50682;BME280;36779;52.168;20.878;2023-04-26T12:35:18;100068.31;;;9.82;56.56
50682;BME280;36779;52.168;20.878;2023-04-26T12:38:11;100067.73;;;9.99;56.59
50682;BME280;36779;52.168;20.878;2023-04-26T12:41:05;100069.22;;;10.06;56.26
50682;BME280;36779;52.168;20.878;2023-04-26T12:43:59;100070.71;;;10.18;56.54
50682;BME280;36779;52.168;20.878;2023-04-26T12:46:53;100075.23;;;10.27;56.24
50682;BME280;36779;52.168;20.878;2023-04-26T12:49:46;100081.85;;;10.26;55.97
50682;BME280;36779;52.168;20.878;2023-04-26T12:52:39;100083.50;;;10.14;55.90
50682;BME280;36779;52.168;20.878;2023-04-26T12:55:33;100088.63;;;9.98;55.68
50682;BME280;36779;52.168;20.878;2023-04-26T12:58:27;100094.95;;;9.77;55.57
50682;BME280;36779;52.168;20.878;2023-04-26T13:01:20;100098.75;;;9.61;55.46
50682;BME280;36779;52.168;20.878;2023-04-26T13:04:13;100102.84;;;9.50;55.56
50682;BME280;36779;52.168;20.878;2023-04-26T13:07:09;100102.18;;;9.39;55.57
50682;BME280;36779;52.168;20.878;2023-04-26T13:09:57;100106.17;;;9.30;55.52
50682;BME280;36779;52.168;20.878;2023-04-26T13:12:52;100106.34;;;9.22;55.66
50682;BME280;36779;52.168;20.878;2023-04-26T13:15:45;100102.39;;;9.25;55.89
50682;BME280;36779;52.168;20.878;2023-04-26T13:18:38;100102.77;;;9.28;55.67
50682;BME280;36779;52.168;20.878;2023-04-26T13:21:32;100100.77;;;9.26;55.64
50682;BME280;36779;52.168;20.878;2023-04-26T13:24:28;100098.63;;;9.28;55.71
50682;BME280;36779;52.168;20.878;2023-04-26T13:27:21;100097.45;;;9.28;55.71
50682;BME280;36779;52.168;20.878;2023-04-26T13:30:14;100102.92;;;9.25;55.56
50682;BME280;36779;52.168;20.878;2023-04-26T13:33:07;100103.28;;;9.24;55.47
50682;BME280;36779;52.168;20.878;2023-04-26T13:36:00;100105.94;;;9.24;55.57
50682;BME280;36779;52.168;20.878;2023-04-26T13:38:54;100107.73;;;9.28;55.62
50682;BME280;36779;52.168;20.878;2023-04-26T13:41:48;100112.48;;;9.37;55.51
50682;BME280;36779;52.168;20.878;2023-04-26T13:44:42;100117.46;;;9.45;55.57
50682;BME280;36779;52.168;20.878;2023-04-26T13:47:34;100120.14;;;9.50;55.48
50682;BME280;36779;52.168;20.878;2023-04-26T13:50:27;100120.30;;;9.50;55.31
50682;BME280;36779;52.168;20.878;2023-04-26T13:53:20;100118.54;;;9.50;55.16
50682;BME280;36779;52.168;20.878;2023-04-26T13:56:13;100119.52;;;9.44;54.99
50682;BME280;36779;52.168;20.878;2023-04-26T13:59:06;100119.36;;;9.37;55.03
50682;BME280;36779;52.168;20.878;2023-04-26T14:02:01;100125.80;;;9.34;55.02
50682;BME280;36779;52.168;20.878;2023-04-26T14:04:58;100126.80;;;9.27;54.83
50682;BME280;36779;52.168;20.878;2023-04-26T14:07:45;100129.86;;;9.18;54.77
50682;BME280;36779;52.168;20.878;2023-04-26T14:10:38;100133.12;;;9.13;54.72
50682;BME280;36779;52.168;20.878;2023-04-26T14:13:32;100140.61;;;9.09;54.85
50682;BME280;36779;52.168;20.878;2023-04-26T14:16:26;100146.25;;;9.04;54.83
50682;BME280;36779;52.168;20.878;2023-04-26T14:19:21;100147.85;;;9.02;54.75
50682;BME280;36779;52.168;20.878;2023-04-26T14:22:36;100143.50;;;9.02;54.80
50682;BME280;36779;52.168;20.878;2023-04-26T14:25:32;100151.94;;;9.02;54.73
50682;BME280;36779;52.168;20.878;2023-04-26T14:28:28;100151.45;;;8.97;54.58
50682;BME280;36779;52.168;20.878;2023-04-26T14:31:21;100159.80;;;8.88;54.51
50682;BME280;36779;52.168;20.878;2023-04-26T14:34:16;100169.27;;;8.78;54.60
50682;BME280;36779;52.168;20.878;2023-04-26T14:37:10;100168.59;;;8.78;54.68
50682;BME280;36779;52.168;20.878;2023-04-26T14:40:05;100172.73;;;8.83;54.82
50682;BME280;36779;52.168;20.878;2023-04-26T14:42:59;100172.39;;;8.82;54.65
50682;BME280;36779;52.168;20.878;2023-04-26T14:45:51;100174.67;;;8.79;54.64
50682;BME280;36779;52.168;20.878;2023-04-26T14:48:44;100174.53;;;8.75;54.56
50682;BME280;36779;52.168;20.878;2023-04-26T14:51:36;100178.02;;;8.70;54.60
50682;BME280;36779;52.168;20.878;2023-04-26T14:54:29;100181.86;;;8.67;54.53
50682;BME280;36779;52.168;20.878;2023-04-26T14:57:23;100182.63;;;8.60;54.40
50682;BME280;36779;52.168;20.878;2023-04-26T15:00:18;100185.73;;;8.48;54.41
50682;BME280;36779;52.168;20.878;2023-04-26T15:03:10;100186.70;;;8.42;54.46
50682;BME280;36779;52.168;20.878;2023-04-26T15:06:04;100192.88;;;8.39;54.54
50682;BME280;36779;52.168;20.878;2023-04-26T15:08:56;100193.27;;;8.37;54.56
50682;BME280;36779;52.168;20.878;2023-04-26T15:11:49;100193.61;;;8.35;54.61
50682;BME280;36779;52.168;20.878;2023-04-26T15:14:41;100197.64;;;8.32;54.59
50682;BME280;36779;52.168;20.878;2023-04-26T15:17:35;100198.31;;;8.27;54.62